キエフ/ボリースピリ の空港の天気 - METARとTAF

ボリースピリ国際空港(キエフ) ( UKBB / KBP ) - ウクライナ ボリスピリ (キエフ近郊)
飛行場実況気象(Metar)
観測時間01/20 19:30 EET (01/20 17:30 UTC)
風向・風速西 3m/s
視程8000m
天気現象弱い雪
全天を覆う雲 雲底高度 610m
気温-4℃
湿度100%
気圧1026hPa
METARUKBB 201730Z 28003MPS 8000 -SN OVC020 M04/M04 Q1026 R36R/811050 R36L/811055 TEMPO -FZRA
過去の天気等 Google飛行場航空写真 Wunderground天気予報

過去48時間のMETAR

飛行場予報(TAF)
発表時間: 1/20 19:17 EET (1/20 17:17 UTC)
予報対象時間: 20日20時 EET ~ 21日20時 EET
風向・風速西 5m/s
視程2,000m
天気現象もや
全天を覆う雲 雲底高度 120m
20日20時 EET ~ 21日9時 EET に一時的に
視程400m
天気現象弱いしゅう雪 氷霧
全天を覆う雲 雲底高度 30m
全天の4割程度の積乱雲 雲底高度 370m
20日20時 EET ~ 21日10時 EET に 確率 40% で一時的に
天気現象弱い氷霧雨
21日10時 EET ~ 21日12時 EET に徐々に
風向・風速西北西 5m/s 瞬間風速 10m/s
視程4,000m
天気現象もや
全天を覆う雲 雲底高度 210m
TAF COR UKBB 201717Z 2018/2118 27005MPS 2000 BR OVC004
TEMPO 2018/2107 0400 -SHSN FZFG OVC001 SCT012CB
PROB40 TEMPO 2018/2108 -FZDZ
BECMG 2108/2110 29005G10MPS 4000 BR OVC007 TXM00/2112Z TNM06/2106Z